SHT3T EGCC-EGLL
Flight info
| Callsign | SHT3T |
|---|---|
| Flight time | 0h 34m |
| Altitude | 19000 |
| Route | LISTO L612 HON |
| Aircraft | A320/M-SDE3FGHIRWY/LB1 |
Departure
| Time | 2026-04-30 22:06 |
|---|---|
| Airport | Manchester Airport (EGCC) |
Arrival
| Time | 2026-04-30 22:41 |
|---|---|
| Airport | London Heathrow Airport (EGLL) |
| Time | Latitude | Longitude | Altitude | Speed | Heading |
|---|---|---|---|---|---|
| 2026-04-30 21:40 | 53.35899 | -2.27035 | 238 ft | 0 kts | 321° |
| 2026-04-30 21:54 | 53.35891 | -2.27023 | 238 ft | 4 kts | 318° |
| 2026-04-30 21:54 | 53.35872 | -2.26991 | 237 ft | 4 kts | 307° |
| 2026-04-30 21:54 | 53.35859 | -2.26953 | 237 ft | 4 kts | 279° |
| 2026-04-30 21:55 | 53.35860 | -2.26921 | 236 ft | 0 kts | 236° |
| 2026-04-30 21:58 | 53.35860 | -2.26922 | 242 ft | 0 kts | 236° |
| 2026-04-30 21:59 | 53.35857 | -2.26930 | 236 ft | 1 kts | 236° |
| 2026-04-30 21:59 | 53.35841 | -2.26979 | 237 ft | 9 kts | 247° |
| 2026-04-30 21:59 | 53.35795 | -2.27093 | 239 ft | 14 kts | 230° |
| 2026-04-30 22:00 | 53.35669 | -2.27353 | 243 ft | 15 kts | 230° |
| 2026-04-30 22:00 | 53.35534 | -2.27631 | 247 ft | 16 kts | 231° |
| 2026-04-30 22:00 | 53.35469 | -2.27766 | 249 ft | 12 kts | 233° |
| 2026-04-30 22:01 | 53.35455 | -2.27906 | 251 ft | 12 kts | 260° |
| 2026-04-30 22:01 | 53.35396 | -2.28018 | 252 ft | 14 kts | 223° |
| 2026-04-30 22:01 | 53.35325 | -2.28135 | 253 ft | 15 kts | 224° |
| 2026-04-30 22:01 | 53.35250 | -2.28264 | 255 ft | 16 kts | 230° |
| 2026-04-30 22:02 | 53.35175 | -2.28417 | 256 ft | 18 kts | 231° |
| 2026-04-30 22:02 | 53.35096 | -2.28582 | 258 ft | 19 kts | 231° |
| 2026-04-30 22:02 | 53.35007 | -2.28755 | 260 ft | 20 kts | 225° |
| 2026-04-30 22:02 | 53.34906 | -2.28930 | 263 ft | 21 kts | 226° |
| 2026-04-30 22:03 | 53.34827 | -2.29076 | 264 ft | 16 kts | 229° |
| 2026-04-30 22:03 | 53.34752 | -2.29222 | 266 ft | 17 kts | 230° |
| 2026-04-30 22:03 | 53.34680 | -2.29325 | 268 ft | 5 kts | 202° |
| 2026-04-30 22:03 | 53.34678 | -2.29326 | 268 ft | 0 kts | 201° |
| 2026-04-30 22:04 | 53.34676 | -2.29327 | 268 ft | 2 kts | 201° |
| 2026-04-30 22:04 | 53.34634 | -2.29343 | 269 ft | 10 kts | 180° |
| 2026-04-30 22:04 | 53.34573 | -2.29150 | 268 ft | 3 kts | 51° |
| 2026-04-30 22:05 | 53.34582 | -2.29130 | 268 ft | 0 kts | 51° |
| 2026-04-30 22:05 | 53.34595 | -2.29102 | 267 ft | 12 kts | 51° |
| 2026-04-30 22:05 | 53.34785 | -2.28711 | 265 ft | 78 kts | 51° |
| 2026-04-30 22:06 | 53.35253 | -2.27749 | 252 ft | 132 kts | 51° |
| 2026-04-30 22:06 | 53.36583 | -2.25102 | 1174 ft | 147 kts | 57° |
| 2026-04-30 22:06 | 53.37198 | -2.23736 | 1613 ft | 149 kts | 74° |
| 2026-04-30 22:07 | 53.37381 | -2.22057 | 1966 ft | 151 kts | 107° |
| 2026-04-30 22:07 | 53.36900 | -2.20483 | 2304 ft | 158 kts | 139° |
| 2026-04-30 22:07 | 53.36336 | -2.19640 | 2611 ft | 165 kts | 142° |
| 2026-04-30 22:07 | 53.35120 | -2.17924 | 3177 ft | 183 kts | 144° |
| 2026-04-30 22:08 | 53.34349 | -2.17142 | 3285 ft | 203 kts | 160° |
| 2026-04-30 22:08 | 53.32817 | -2.16861 | 3558 ft | 233 kts | 185° |
| 2026-04-30 22:08 | 53.31186 | -2.17177 | 4226 ft | 245 kts | 186° |
| 2026-04-30 22:08 | 53.29473 | -2.17481 | 4951 ft | 253 kts | 185° |
| 2026-04-30 22:09 | 53.27686 | -2.17779 | 5014 ft | 257 kts | 185° |
| 2026-04-30 22:09 | 53.25863 | -2.18079 | 5623 ft | 259 kts | 185° |
| 2026-04-30 22:09 | 53.24081 | -2.18367 | 6608 ft | 260 kts | 184° |
| 2026-04-30 22:09 | 53.22245 | -2.18658 | 7485 ft | 263 kts | 184° |
| 2026-04-30 22:10 | 53.20410 | -2.18949 | 8337 ft | 266 kts | 184° |
| 2026-04-30 22:10 | 53.18557 | -2.19241 | 9202 ft | 269 kts | 184° |
| 2026-04-30 22:10 | 53.16681 | -2.19535 | 10055 ft | 272 kts | 184° |
| 2026-04-30 22:10 | 53.14785 | -2.19683 | 10816 ft | 274 kts | 174° |
| 2026-04-30 22:11 | 53.11037 | -2.17670 | 11824 ft | 301 kts | 158° |
| 2026-04-30 22:11 | 53.09057 | -2.16291 | 11983 ft | 323 kts | 158° |
| 2026-04-30 22:11 | 53.06894 | -2.14779 | 12456 ft | 334 kts | 158° |
| 2026-04-30 22:12 | 53.04761 | -2.13292 | 13119 ft | 338 kts | 158° |
| 2026-04-30 22:12 | 53.02581 | -2.11781 | 13851 ft | 340 kts | 158° |
| 2026-04-30 22:12 | 53.00393 | -2.10266 | 14504 ft | 342 kts | 158° |
| 2026-04-30 22:12 | 52.98154 | -2.08718 | 15128 ft | 345 kts | 158° |
| 2026-04-30 22:13 | 52.95890 | -2.07159 | 15729 ft | 347 kts | 158° |
| 2026-04-30 22:13 | 52.93661 | -2.05628 | 16308 ft | 350 kts | 158° |
| 2026-04-30 22:13 | 52.91401 | -2.04078 | 16901 ft | 353 kts | 158° |
| 2026-04-30 22:13 | 52.89127 | -2.02522 | 17497 ft | 355 kts | 158° |
| 2026-04-30 22:14 | 52.86802 | -2.00930 | 18022 ft | 360 kts | 158° |
| 2026-04-30 22:14 | 52.84470 | -1.99333 | 18571 ft | 364 kts | 158° |
| 2026-04-30 22:14 | 52.82116 | -1.97721 | 19036 ft | 367 kts | 158° |
| 2026-04-30 22:14 | 52.79760 | -1.96111 | 19186 ft | 367 kts | 158° |
| 2026-04-30 22:15 | 52.77337 | -1.94458 | 19225 ft | 384 kts | 158° |
| 2026-04-30 22:15 | 52.74822 | -1.92748 | 19224 ft | 397 kts | 158° |
| 2026-04-30 22:15 | 52.72241 | -1.90994 | 19223 ft | 401 kts | 158° |
| 2026-04-30 22:15 | 52.69665 | -1.89245 | 19221 ft | 402 kts | 158° |
| 2026-04-30 22:16 | 52.67051 | -1.87474 | 19223 ft | 402 kts | 158° |
| 2026-04-30 22:16 | 52.64458 | -1.85720 | 19218 ft | 402 kts | 158° |
| 2026-04-30 22:17 | 52.56662 | -1.80462 | 19220 ft | 402 kts | 158° |
| 2026-04-30 22:17 | 52.54077 | -1.78718 | 19219 ft | 402 kts | 158° |
| 2026-04-30 22:17 | 52.48891 | -1.75234 | 19221 ft | 402 kts | 158° |
| 2026-04-30 22:18 | 52.46300 | -1.73498 | 19221 ft | 402 kts | 158° |
| 2026-04-30 22:18 | 52.41081 | -1.70006 | 19221 ft | 403 kts | 158° |
| 2026-04-30 22:19 | 52.35997 | -1.66313 | 19215 ft | 402 kts | 149° |
| 2026-04-30 22:19 | 52.33697 | -1.63607 | 19212 ft | 403 kts | 140° |
| 2026-04-30 22:19 | 52.29463 | -1.57582 | 19233 ft | 403 kts | 140° |
| 2026-04-30 22:20 | 52.27387 | -1.54663 | 19238 ft | 403 kts | 140° |
| 2026-04-30 22:20 | 52.23068 | -1.48613 | 19243 ft | 402 kts | 140° |
| 2026-04-30 22:20 | 52.20961 | -1.45658 | 19227 ft | 403 kts | 140° |
| 2026-04-30 22:21 | 52.18822 | -1.42664 | 19225 ft | 403 kts | 140° |
| 2026-04-30 22:21 | 52.16743 | -1.39757 | 19006 ft | 389 kts | 140° |
| 2026-04-30 22:21 | 52.14722 | -1.36936 | 18778 ft | 376 kts | 140° |
| 2026-04-30 22:21 | 52.12745 | -1.34182 | 18550 ft | 373 kts | 140° |
| 2026-04-30 22:22 | 52.10804 | -1.31480 | 18278 ft | 364 kts | 140° |
| 2026-04-30 22:22 | 52.08900 | -1.28829 | 18005 ft | 352 kts | 140° |
| 2026-04-30 22:22 | 52.07074 | -1.26288 | 17746 ft | 341 kts | 140° |
| 2026-04-30 22:22 | 52.05295 | -1.23817 | 17477 ft | 331 kts | 141° |
| 2026-04-30 22:23 | 52.03532 | -1.21377 | 17214 ft | 322 kts | 141° |
| 2026-04-30 22:23 | 52.01881 | -1.19097 | 17020 ft | 312 kts | 141° |
| 2026-04-30 22:23 | 52.00257 | -1.16856 | 16884 ft | 299 kts | 141° |
| 2026-04-30 22:23 | 51.98730 | -1.14750 | 16754 ft | 280 kts | 141° |
| 2026-04-30 22:24 | 51.97265 | -1.12727 | 16503 ft | 267 kts | 141° |
| 2026-04-30 22:24 | 51.95871 | -1.10802 | 16067 ft | 262 kts | 141° |
| 2026-04-30 22:24 | 51.94489 | -1.08894 | 15588 ft | 260 kts | 141° |
| 2026-04-30 22:24 | 51.93123 | -1.07008 | 15096 ft | 258 kts | 141° |
| 2026-04-30 22:25 | 51.91755 | -1.05122 | 14638 ft | 256 kts | 142° |
| 2026-04-30 22:25 | 51.90404 | -1.03269 | 14169 ft | 254 kts | 142° |
| 2026-04-30 22:25 | 51.89056 | -1.01421 | 13678 ft | 252 kts | 142° |
| 2026-04-30 22:25 | 51.87725 | -0.99592 | 13220 ft | 249 kts | 142° |
| 2026-04-30 22:26 | 51.85224 | -0.95779 | 12522 ft | 250 kts | 127° |
| 2026-04-30 22:26 | 51.84389 | -0.93306 | 12202 ft | 252 kts | 119° |
| 2026-04-30 22:26 | 51.83879 | -0.91619 | 11984 ft | 253 kts | 119° |
| 2026-04-30 22:27 | 51.83099 | -0.89056 | 11651 ft | 254 kts | 119° |
| 2026-04-30 22:27 | 51.82321 | -0.86509 | 11393 ft | 252 kts | 119° |
| 2026-04-30 22:27 | 51.80761 | -0.81419 | 10796 ft | 252 kts | 119° |
| 2026-04-30 22:28 | 51.79218 | -0.76395 | 10176 ft | 249 kts | 118° |
| 2026-04-30 22:28 | 51.78448 | -0.73884 | 9782 ft | 248 kts | 118° |
| 2026-04-30 22:29 | 51.76161 | -0.66451 | 8682 ft | 245 kts | 118° |
| 2026-04-30 22:29 | 51.75399 | -0.63989 | 8378 ft | 245 kts | 118° |
| 2026-04-30 22:30 | 51.71585 | -0.55318 | 7374 ft | 233 kts | 159° |
| 2026-04-30 22:31 | 51.66781 | -0.54654 | 6459 ft | 232 kts | 177° |
| 2026-04-30 22:32 | 51.62797 | -0.57578 | 5968 ft | 219 kts | 243° |
| 2026-04-30 22:32 | 51.61890 | -0.62114 | 5601 ft | 210 kts | 249° |
| 2026-04-30 22:33 | 51.60473 | -0.69404 | 4596 ft | 234 kts | 249° |
| 2026-04-30 22:33 | 51.59508 | -0.74401 | 4020 ft | 233 kts | 248° |
| 2026-04-30 22:34 | 51.56452 | -0.79503 | 3549 ft | 211 kts | 186° |
| 2026-04-30 22:35 | 51.53680 | -0.79466 | 3498 ft | 192 kts | 176° |
| 2026-04-30 22:36 | 51.48419 | -0.79006 | 3282 ft | 185 kts | 155° |
| 2026-04-30 22:36 | 51.47589 | -0.77475 | 3153 ft | 191 kts | 110° |
| 2026-04-30 22:37 | 51.47638 | -0.71301 | 2750 ft | 174 kts | 96° |
| 2026-04-30 22:37 | 51.47647 | -0.69371 | 2610 ft | 172 kts | 96° |
| 2026-04-30 22:37 | 51.47667 | -0.65584 | 2198 ft | 168 kts | 96° |
| 2026-04-30 22:38 | 51.47689 | -0.61866 | 1749 ft | 162 kts | 96° |
| 2026-04-30 22:38 | 51.47705 | -0.58436 | 1338 ft | 149 kts | 95° |
| 2026-04-30 22:39 | 51.47712 | -0.56786 | 1139 ft | 145 kts | 94° |
| 2026-04-30 22:39 | 51.47735 | -0.52082 | 547 ft | 140 kts | 89° |
| 2026-04-30 22:40 | 51.47743 | -0.47462 | 86 ft | 124 kts | 89° |
| 2026-04-30 22:41 | 51.47762 | -0.45681 | 84 ft | 4 kts | 89° |
| 2026-04-30 22:41 | 51.47639 | -0.45464 | 86 ft | 15 kts | 180° |
| 2026-04-30 22:42 | 51.47593 | -0.46213 | 86 ft | 16 kts | 269° |
| 2026-04-30 22:43 | 51.47591 | -0.46526 | 86 ft | 16 kts | 270° |
| 2026-04-30 22:43 | 51.47586 | -0.46864 | 88 ft | 18 kts | 260° |
| 2026-04-30 22:44 | 51.47581 | -0.47315 | 87 ft | 23 kts | 269° |
| 2026-04-30 22:45 | 51.47578 | -0.48167 | 89 ft | 20 kts | 269° |
| 2026-04-30 22:45 | 51.47536 | -0.48476 | 90 ft | 14 kts | 184° |
| 2026-04-30 22:46 | 51.47486 | -0.48678 | 87 ft | 13 kts | 269° |
| 2026-04-30 22:47 | 51.47396 | -0.48757 | 86 ft | 0 kts | 180° |